sensor_id;sensor_type;location;lat;lon;timestamp;temperature;humidity
3194;DHT22;1608;50.860;13.466;2022-11-15T00:00:28;9.00;99.90
3194;DHT22;1608;50.860;13.466;2022-11-15T00:02:55;9.30;99.90
3194;DHT22;1608;50.860;13.466;2022-11-15T00:05:23;9.30;99.90
3194;DHT22;1608;50.860;13.466;2022-11-15T00:07:50;9.30;99.90
3194;DHT22;1608;50.860;13.466;2022-11-15T00:10:17;9.10;99.90
3194;DHT22;1608;50.860;13.466;2022-11-15T00:12:44;9.10;99.90
3194;DHT22;1608;50.860;13.466;2022-11-15T00:15:11;9.00;99.90
3194;DHT22;1608;50.860;13.466;2022-11-15T00:17:38;8.80;99.90
3194;DHT22;1608;50.860;13.466;2022-11-15T00:20:05;8.80;99.90
3194;DHT22;1608;50.860;13.466;2022-11-15T00:22:34;8.60;99.90
3194;DHT22;1608;50.860;13.466;2022-11-15T00:25:01;8.60;99.90
3194;DHT22;1608;50.860;13.466;2022-11-15T00:27:28;8.60;99.90
3194;DHT22;1608;50.860;13.466;2022-11-15T00:29:55;8.70;99.90
3194;DHT22;1608;50.860;13.466;2022-11-15T00:32:22;8.60;99.90
3194;DHT22;1608;50.860;13.466;2022-11-15T00:34:49;8.60;99.90
3194;DHT22;1608;50.860;13.466;2022-11-15T00:37:16;8.60;99.90
3194;DHT22;1608;50.860;13.466;2022-11-15T00:39:44;8.60;99.90
3194;DHT22;1608;50.860;13.466;2022-11-15T00:42:11;8.60;99.90
3194;DHT22;1608;50.860;13.466;2022-11-15T00:44:37;8.50;99.90
3194;DHT22;1608;50.860;13.466;2022-11-15T00:47:04;8.50;99.90
3194;DHT22;1608;50.860;13.466;2022-11-15T00:49:31;8.40;99.90
3194;DHT22;1608;50.860;13.466;2022-11-15T00:51:58;8.50;99.90
3194;DHT22;1608;50.860;13.466;2022-11-15T00:54:25;8.60;99.90
3194;DHT22;1608;50.860;13.466;2022-11-15T00:56:53;8.70;99.90
3194;DHT22;1608;50.860;13.466;2022-11-15T00:59:19;8.80;99.90
3194;DHT22;1608;50.860;13.466;2022-11-15T01:01:46;8.80;99.90
3194;DHT22;1608;50.860;13.466;2022-11-15T01:04:14;9.10;99.90
3194;DHT22;1608;50.860;13.466;2022-11-15T01:06:40;9.40;99.90
3194;DHT22;1608;50.860;13.466;2022-11-15T01:09:07;9.20;99.90
3194;DHT22;1608;50.860;13.466;2022-11-15T01:11:34;9.30;99.90
3194;DHT22;1608;50.860;13.466;2022-11-15T01:14:02;9.40;99.90
3194;DHT22;1608;50.860;13.466;2022-11-15T01:16:29;9.40;99.90
3194;DHT22;1608;50.860;13.466;2022-11-15T01:18:56;9.40;99.90
3194;DHT22;1608;50.860;13.466;2022-11-15T01:21:23;9.40;99.90
3194;DHT22;1608;50.860;13.466;2022-11-15T01:23:52;9.40;99.90
3194;DHT22;1608;50.860;13.466;2022-11-15T01:26:19;9.40;99.90
3194;DHT22;1608;50.860;13.466;2022-11-15T01:28:46;9.30;99.90
3194;DHT22;1608;50.860;13.466;2022-11-15T01:31:16;9.30;99.90
3194;DHT22;1608;50.860;13.466;2022-11-15T01:33:44;9.10;99.90
3194;DHT22;1608;50.860;13.466;2022-11-15T01:36:12;9.10;99.90
3194;DHT22;1608;50.860;13.466;2022-11-15T01:38:40;9.10;99.90
3194;DHT22;1608;50.860;13.466;2022-11-15T01:41:11;9.00;99.90
3194;DHT22;1608;50.860;13.466;2022-11-15T01:43:40;9.00;99.90
3194;DHT22;1608;50.860;13.466;2022-11-15T01:46:19;9.00;99.90
3194;DHT22;1608;50.860;13.466;2022-11-15T01:48:50;9.00;99.90
3194;DHT22;1608;50.860;13.466;2022-11-15T01:51:20;9.10;99.90
3194;DHT22;1608;50.860;13.466;2022-11-15T01:53:52;9.00;99.90
3194;DHT22;1608;50.860;13.466;2022-11-15T01:56:23;9.00;99.90
3194;DHT22;1608;50.860;13.466;2022-11-15T01:58:53;8.90;99.90
3194;DHT22;1608;50.860;13.466;2022-11-15T02:01:24;8.90;99.90
3194;DHT22;1608;50.860;13.466;2022-11-15T02:03:56;9.00;99.90
3194;DHT22;1608;50.860;13.466;2022-11-15T02:06:24;9.00;99.90
3194;DHT22;1608;50.860;13.466;2022-11-15T02:08:51;8.90;99.90
3194;DHT22;1608;50.860;13.466;2022-11-15T02:11:18;9.00;99.90
3194;DHT22;1608;50.860;13.466;2022-11-15T02:13:45;9.00;99.90
3194;DHT22;1608;50.860;13.466;2022-11-15T02:16:17;9.00;99.90
3194;DHT22;1608;50.860;13.466;2022-11-15T02:18:52;9.00;99.90
3194;DHT22;1608;50.860;13.466;2022-11-15T02:21:28;9.00;99.90
3194;DHT22;1608;50.860;13.466;2022-11-15T02:30:23;9.00;99.90
3194;DHT22;1608;50.860;13.466;2022-11-15T02:32:54;9.00;99.90
3194;DHT22;1608;50.860;13.466;2022-11-15T02:35:29;9.00;99.90
3194;DHT22;1608;50.860;13.466;2022-11-15T02:38:07;9.10;99.90
3194;DHT22;1608;50.860;13.466;2022-11-15T02:40:41;9.10;99.90
3194;DHT22;1608;50.860;13.466;2022-11-15T02:43:11;9.00;99.90
3194;DHT22;1608;50.860;13.466;2022-11-15T02:46:03;9.00;99.90
3194;DHT22;1608;50.860;13.466;2022-11-15T02:48:32;9.00;99.90
3194;DHT22;1608;50.860;13.466;2022-11-15T02:51:00;9.00;99.90
3194;DHT22;1608;50.860;13.466;2022-11-15T02:53:27;9.00;99.90
3194;DHT22;1608;50.860;13.466;2022-11-15T02:55:56;9.00;99.90
3194;DHT22;1608;50.860;13.466;2022-11-15T02:58:54;9.10;99.90
3194;DHT22;1608;50.860;13.466;2022-11-15T03:01:35;9.10;99.90
3194;DHT22;1608;50.860;13.466;2022-11-15T03:04:15;9.10;99.90
3194;DHT22;1608;50.860;13.466;2022-11-15T03:06:50;9.20;99.90
3194;DHT22;1608;50.860;13.466;2022-11-15T03:09:27;9.20;99.90
3194;DHT22;1608;50.860;13.466;2022-11-15T03:11:59;9.20;99.90
3194;DHT22;1608;50.860;13.466;2022-11-15T03:14:30;9.20;99.90
3194;DHT22;1608;50.860;13.466;2022-11-15T03:17:05;9.10;99.90
3194;DHT22;1608;50.860;13.466;2022-11-15T03:19:40;9.10;99.90
3194;DHT22;1608;50.860;13.466;2022-11-15T03:22:12;9.20;99.90
3194;DHT22;1608;50.860;13.466;2022-11-15T03:24:42;9.20;99.90
3194;DHT22;1608;50.860;13.466;2022-11-15T03:27:12;9.20;99.90
3194;DHT22;1608;50.860;13.466;2022-11-15T03:29:45;9.10;99.90
3194;DHT22;1608;50.860;13.466;2022-11-15T03:32:17;9.10;99.90
3194;DHT22;1608;50.860;13.466;2022-11-15T03:34:49;9.20;99.90
3194;DHT22;1608;50.860;13.466;2022-11-15T03:37:22;9.10;99.90
3194;DHT22;1608;50.860;13.466;2022-11-15T03:39:51;9.20;99.90
3194;DHT22;1608;50.860;13.466;2022-11-15T03:42:22;9.10;99.90
3194;DHT22;1608;50.860;13.466;2022-11-15T03:44:57;9.10;99.90
3194;DHT22;1608;50.860;13.466;2022-11-15T03:47:32;9.10;99.90
3194;DHT22;1608;50.860;13.466;2022-11-15T03:50:04;9.10;99.90
3194;DHT22;1608;50.860;13.466;2022-11-15T03:52:32;9.10;99.90
3194;DHT22;1608;50.860;13.466;2022-11-15T03:55:01;9.00;99.90
3194;DHT22;1608;50.860;13.466;2022-11-15T03:57:29;9.10;99.90
3194;DHT22;1608;50.860;13.466;2022-11-15T03:59:56;9.10;99.90
3194;DHT22;1608;50.860;13.466;2022-11-15T04:02:22;9.10;99.90
3194;DHT22;1608;50.860;13.466;2022-11-15T04:04:51;9.00;99.90
3194;DHT22;1608;50.860;13.466;2022-11-15T04:07:17;9.00;99.90
3194;DHT22;1608;50.860;13.466;2022-11-15T04:09:44;9.00;99.90
3194;DHT22;1608;50.860;13.466;2022-11-15T04:12:29;9.00;99.90
3194;DHT22;1608;50.860;13.466;2022-11-15T04:15:00;9.00;99.90
3194;DHT22;1608;50.860;13.466;2022-11-15T04:17:38;9.00;99.90
3194;DHT22;1608;50.860;13.466;2022-11-15T04:20:08;9.00;99.90
3194;DHT22;1608;50.860;13.466;2022-11-15T04:22:54;9.00;99.90
3194;DHT22;1608;50.860;13.466;2022-11-15T04:25:39;9.00;99.90
3194;DHT22;1608;50.860;13.466;2022-11-15T04:28:06;9.00;99.90
3194;DHT22;1608;50.860;13.466;2022-11-15T04:30:32;9.00;99.90
3194;DHT22;1608;50.860;13.466;2022-11-15T04:32:59;9.00;99.90
3194;DHT22;1608;50.860;13.466;2022-11-15T04:35:28;9.00;99.90
3194;DHT22;1608;50.860;13.466;2022-11-15T04:37:55;9.00;99.90
3194;DHT22;1608;50.860;13.466;2022-11-15T04:40:22;9.00;99.90
3194;DHT22;1608;50.860;13.466;2022-11-15T04:42:49;9.00;99.90
3194;DHT22;1608;50.860;13.466;2022-11-15T04:45:16;9.00;99.90
3194;DHT22;1608;50.860;13.466;2022-11-15T04:47:44;9.10;99.90
3194;DHT22;1608;50.860;13.466;2022-11-15T04:50:11;9.10;99.90
3194;DHT22;1608;50.860;13.466;2022-11-15T04:52:40;9.10;99.90
3194;DHT22;1608;50.860;13.466;2022-11-15T04:55:08;9.10;99.90
3194;DHT22;1608;50.860;13.466;2022-11-15T04:57:35;9.10;99.90
3194;DHT22;1608;50.860;13.466;2022-11-15T05:00:03;9.10;99.90
3194;DHT22;1608;50.860;13.466;2022-11-15T05:02:30;9.00;99.90
3194;DHT22;1608;50.860;13.466;2022-11-15T05:05:11;9.00;99.90
3194;DHT22;1608;50.860;13.466;2022-11-15T05:07:39;9.00;99.90
3194;DHT22;1608;50.860;13.466;2022-11-15T05:10:06;8.90;99.90
3194;DHT22;1608;50.860;13.466;2022-11-15T05:12:33;9.00;99.90
3194;DHT22;1608;50.860;13.466;2022-11-15T05:15:00;8.90;99.90
3194;DHT22;1608;50.860;13.466;2022-11-15T05:17:27;8.90;99.90
3194;DHT22;1608;50.860;13.466;2022-11-15T05:19:53;8.90;99.90
3194;DHT22;1608;50.860;13.466;2022-11-15T05:22:20;8.80;99.90
3194;DHT22;1608;50.860;13.466;2022-11-15T05:24:49;8.80;99.90
3194;DHT22;1608;50.860;13.466;2022-11-15T05:27:16;8.80;99.90
3194;DHT22;1608;50.860;13.466;2022-11-15T05:29:42;8.70;99.90
3194;DHT22;1608;50.860;13.466;2022-11-15T05:32:09;8.70;99.90
3194;DHT22;1608;50.860;13.466;2022-11-15T05:34:38;8.60;99.90
3194;DHT22;1608;50.860;13.466;2022-11-15T05:37:05;8.60;99.90
3194;DHT22;1608;50.860;13.466;2022-11-15T05:39:32;8.70;99.90
3194;DHT22;1608;50.860;13.466;2022-11-15T05:42:04;8.60;99.90
3194;DHT22;1608;50.860;13.466;2022-11-15T05:44:34;8.70;99.90
3194;DHT22;1608;50.860;13.466;2022-11-15T05:47:03;8.60;99.90
3194;DHT22;1608;50.860;13.466;2022-11-15T05:49:32;8.60;99.90
3194;DHT22;1608;50.860;13.466;2022-11-15T05:52:03;8.50;99.90
3194;DHT22;1608;50.860;13.466;2022-11-15T05:54:32;8.50;99.90
3194;DHT22;1608;50.860;13.466;2022-11-15T05:57:01;8.50;99.90
3194;DHT22;1608;50.860;13.466;2022-11-15T05:59:29;8.50;99.90
3194;DHT22;1608;50.860;13.466;2022-11-15T06:01:56;8.60;99.90
3194;DHT22;1608;50.860;13.466;2022-11-15T06:04:23;8.60;99.90
3194;DHT22;1608;50.860;13.466;2022-11-15T06:06:50;8.70;99.90
3194;DHT22;1608;50.860;13.466;2022-11-15T06:09:17;8.70;99.90
3194;DHT22;1608;50.860;13.466;2022-11-15T06:11:44;8.70;99.90
3194;DHT22;1608;50.860;13.466;2022-11-15T06:14:12;8.70;99.90
3194;DHT22;1608;50.860;13.466;2022-11-15T06:16:38;8.70;99.90
3194;DHT22;1608;50.860;13.466;2022-11-15T06:19:06;8.80;99.90
3194;DHT22;1608;50.860;13.466;2022-11-15T06:21:33;8.70;99.90
3194;DHT22;1608;50.860;13.466;2022-11-15T06:23:59;8.70;99.90
3194;DHT22;1608;50.860;13.466;2022-11-15T06:26:26;8.70;99.90
3194;DHT22;1608;50.860;13.466;2022-11-15T06:28:53;8.70;99.90
3194;DHT22;1608;50.860;13.466;2022-11-15T06:31:21;8.70;99.90
3194;DHT22;1608;50.860;13.466;2022-11-15T06:33:48;8.70;99.90
3194;DHT22;1608;50.860;13.466;2022-11-15T06:36:16;10.00;99.90
3194;DHT22;1608;50.860;13.466;2022-11-15T06:38:43;8.70;99.90
3194;DHT22;1608;50.860;13.466;2022-11-15T06:41:12;8.70;99.90
3194;DHT22;1608;50.860;13.466;2022-11-15T06:43:39;8.60;99.90
3194;DHT22;1608;50.860;13.466;2022-11-15T06:46:07;8.60;99.90
3194;DHT22;1608;50.860;13.466;2022-11-15T06:48:35;8.70;99.90
3194;DHT22;1608;50.860;13.466;2022-11-15T06:51:03;8.70;99.90
3194;DHT22;1608;50.860;13.466;2022-11-15T06:53:31;8.80;99.90
3194;DHT22;1608;50.860;13.466;2022-11-15T06:55:59;8.90;99.90
3194;DHT22;1608;50.860;13.466;2022-11-15T06:58:26;9.00;99.90
3194;DHT22;1608;50.860;13.466;2022-11-15T07:00:53;9.20;99.90
3194;DHT22;1608;50.860;13.466;2022-11-15T07:03:20;9.40;99.90
3194;DHT22;1608;50.860;13.466;2022-11-15T07:05:52;9.50;99.90
3194;DHT22;1608;50.860;13.466;2022-11-15T07:08:20;9.60;99.90
3194;DHT22;1608;50.860;13.466;2022-11-15T07:10:47;9.70;99.90
3194;DHT22;1608;50.860;13.466;2022-11-15T07:13:14;9.70;99.90
3194;DHT22;1608;50.860;13.466;2022-11-15T07:15:40;9.80;99.90
3194;DHT22;1608;50.860;13.466;2022-11-15T07:18:07;9.90;99.90
3194;DHT22;1608;50.860;13.466;2022-11-15T07:20:34;10.00;99.90
3194;DHT22;1608;50.860;13.466;2022-11-15T07:23:03;10.20;99.90
3194;DHT22;1608;50.860;13.466;2022-11-15T07:25:31;10.50;99.90
3194;DHT22;1608;50.860;13.466;2022-11-15T07:27:59;10.80;99.90
3194;DHT22;1608;50.860;13.466;2022-11-15T07:30:26;11.10;99.90
3194;DHT22;1608;50.860;13.466;2022-11-15T07:32:54;11.30;99.90
3194;DHT22;1608;50.860;13.466;2022-11-15T07:35:21;11.30;99.90
3194;DHT22;1608;50.860;13.466;2022-11-15T07:37:54;11.40;99.90
3194;DHT22;1608;50.860;13.466;2022-11-15T07:40:23;11.50;99.90
3194;DHT22;1608;50.860;13.466;2022-11-15T07:42:50;11.60;99.90
3194;DHT22;1608;50.860;13.466;2022-11-15T07:45:20;11.60;99.90
3194;DHT22;1608;50.860;13.466;2022-11-15T07:47:47;11.70;99.90
3194;DHT22;1608;50.860;13.466;2022-11-15T07:50:14;11.80;99.90
3194;DHT22;1608;50.860;13.466;2022-11-15T07:52:41;11.80;99.90
3194;DHT22;1608;50.860;13.466;2022-11-15T07:55:08;12.00;99.90
3194;DHT22;1608;50.860;13.466;2022-11-15T07:57:37;12.40;99.90
3194;DHT22;1608;50.860;13.466;2022-11-15T08:00:05;12.40;99.90
3194;DHT22;1608;50.860;13.466;2022-11-15T08:02:32;12.50;99.90
3194;DHT22;1608;50.860;13.466;2022-11-15T08:04:59;12.50;99.90
3194;DHT22;1608;50.860;13.466;2022-11-15T08:07:28;12.50;99.90
3194;DHT22;1608;50.860;13.466;2022-11-15T08:09:55;12.50;99.90
3194;DHT22;1608;50.860;13.466;2022-11-15T08:12:22;12.70;99.90
3194;DHT22;1608;50.860;13.466;2022-11-15T08:14:51;13.00;99.90
3194;DHT22;1608;50.860;13.466;2022-11-15T08:19:45;13.30;99.90
3194;DHT22;1608;50.860;13.466;2022-11-15T08:22:12;13.50;99.90
3194;DHT22;1608;50.860;13.466;2022-11-15T08:24:38;13.60;99.90
3194;DHT22;1608;50.860;13.466;2022-11-15T08:27:05;13.60;99.90
3194;DHT22;1608;50.860;13.466;2022-11-15T08:29:40;13.70;99.90
3194;DHT22;1608;50.860;13.466;2022-11-15T08:32:08;13.70;99.90
3194;DHT22;1608;50.860;13.466;2022-11-15T08:34:35;13.80;99.90
3194;DHT22;1608;50.860;13.466;2022-11-15T08:37:02;13.90;99.90
3194;DHT22;1608;50.860;13.466;2022-11-15T08:39:29;13.90;99.90
3194;DHT22;1608;50.860;13.466;2022-11-15T08:41:56;14.00;99.90
3194;DHT22;1608;50.860;13.466;2022-11-15T08:44:23;14.10;99.90
3194;DHT22;1608;50.860;13.466;2022-11-15T08:46:50;14.00;99.90
3194;DHT22;1608;50.860;13.466;2022-11-15T08:49:19;14.00;99.90
3194;DHT22;1608;50.860;13.466;2022-11-15T08:51:46;14.00;99.90
3194;DHT22;1608;50.860;13.466;2022-11-15T08:54:12;14.10;99.90
3194;DHT22;1608;50.860;13.466;2022-11-15T08:56:39;14.00;99.90
3194;DHT22;1608;50.860;13.466;2022-11-15T08:59:06;13.80;99.90
3194;DHT22;1608;50.860;13.466;2022-11-15T09:01:33;13.70;99.90
3194;DHT22;1608;50.860;13.466;2022-11-15T09:04:00;13.60;99.90
3194;DHT22;1608;50.860;13.466;2022-11-15T09:06:28;13.50;99.90
3194;DHT22;1608;50.860;13.466;2022-11-15T09:08:55;13.50;99.90
3194;DHT22;1608;50.860;13.466;2022-11-15T09:11:22;13.50;99.90
3194;DHT22;1608;50.860;13.466;2022-11-15T09:13:49;13.50;99.90
3194;DHT22;1608;50.860;13.466;2022-11-15T09:16:15;13.60;99.90
3194;DHT22;1608;50.860;13.466;2022-11-15T09:18:42;13.50;99.90
3194;DHT22;1608;50.860;13.466;2022-11-15T09:21:09;13.50;99.90
3194;DHT22;1608;50.860;13.466;2022-11-15T09:23:38;13.50;99.90
3194;DHT22;1608;50.860;13.466;2022-11-15T09:26:05;13.60;99.90
3194;DHT22;1608;50.860;13.466;2022-11-15T09:28:32;13.70;99.90
3194;DHT22;1608;50.860;13.466;2022-11-15T09:31:01;13.60;99.90
3194;DHT22;1608;50.860;13.466;2022-11-15T09:33:28;13.80;99.90
3194;DHT22;1608;50.860;13.466;2022-11-15T09:36:00;13.70;99.90
3194;DHT22;1608;50.860;13.466;2022-11-15T09:38:27;13.70;99.90
3194;DHT22;1608;50.860;13.466;2022-11-15T09:41:08;13.60;99.90
3194;DHT22;1608;50.860;13.466;2022-11-15T09:43:47;13.50;99.90
3194;DHT22;1608;50.860;13.466;2022-11-15T09:46:23;13.70;99.90
3194;DHT22;1608;50.860;13.466;2022-11-15T09:48:54;13.80;99.90
3194;DHT22;1608;50.860;13.466;2022-11-15T09:51:29;13.80;99.90
3194;DHT22;1608;50.860;13.466;2022-11-15T09:54:02;13.80;99.90
3194;DHT22;1608;50.860;13.466;2022-11-15T09:56:32;13.90;99.90
3194;DHT22;1608;50.860;13.466;2022-11-15T09:59:12;13.90;99.90
3194;DHT22;1608;50.860;13.466;2022-11-15T10:01:47;14.00;99.90
3194;DHT22;1608;50.860;13.466;2022-11-15T10:04:17;14.00;99.90
3194;DHT22;1608;50.860;13.466;2022-11-15T10:06:49;14.10;99.90
3194;DHT22;1608;50.860;13.466;2022-11-15T10:09:22;14.10;99.90
3194;DHT22;1608;50.860;13.466;2022-11-15T10:11:52;14.20;99.90
3194;DHT22;1608;50.860;13.466;2022-11-15T10:14:20;14.20;99.90
3194;DHT22;1608;50.860;13.466;2022-11-15T10:17:21;14.20;99.90
3194;DHT22;1608;50.860;13.466;2022-11-15T10:20:02;14.20;99.90
3194;DHT22;1608;50.860;13.466;2022-11-15T10:22:37;14.20;99.90
3194;DHT22;1608;50.860;13.466;2022-11-15T10:25:17;14.20;99.90
3194;DHT22;1608;50.860;13.466;2022-11-15T10:27:52;14.20;99.90
3194;DHT22;1608;50.860;13.466;2022-11-15T10:30:19;14.30;99.90
3194;DHT22;1608;50.860;13.466;2022-11-15T10:32:47;14.40;99.90
3194;DHT22;1608;50.860;13.466;2022-11-15T10:35:21;14.40;99.90
3194;DHT22;1608;50.860;13.466;2022-11-15T10:37:48;14.50;99.90
3194;DHT22;1608;50.860;13.466;2022-11-15T10:40:18;14.50;99.90
3194;DHT22;1608;50.860;13.466;2022-11-15T10:42:47;14.50;99.90
3194;DHT22;1608;50.860;13.466;2022-11-15T10:45:25;14.60;99.90
3194;DHT22;1608;50.860;13.466;2022-11-15T10:47:52;14.70;99.90
3194;DHT22;1608;50.860;13.466;2022-11-15T10:50:28;14.70;99.90
3194;DHT22;1608;50.860;13.466;2022-11-15T10:52:55;14.80;99.90
3194;DHT22;1608;50.860;13.466;2022-11-15T10:55:25;14.80;99.90
3194;DHT22;1608;50.860;13.466;2022-11-15T10:57:55;14.80;99.90
3194;DHT22;1608;50.860;13.466;2022-11-15T11:00:30;14.80;99.90
3194;DHT22;1608;50.860;13.466;2022-11-15T11:03:00;14.90;99.90
3194;DHT22;1608;50.860;13.466;2022-11-15T11:05:29;14.90;99.90
3194;DHT22;1608;50.860;13.466;2022-11-15T11:07:58;15.00;99.90
3194;DHT22;1608;50.860;13.466;2022-11-15T11:10:27;15.00;99.90
3194;DHT22;1608;50.860;13.466;2022-11-15T11:12:55;15.00;99.90
3194;DHT22;1608;50.860;13.466;2022-11-15T11:15:24;15.10;99.90
3194;DHT22;1608;50.860;13.466;2022-11-15T11:17:59;15.10;99.90
3194;DHT22;1608;50.860;13.466;2022-11-15T11:20:32;15.20;99.90
3194;DHT22;1608;50.860;13.466;2022-11-15T11:23:15;15.20;99.90
3194;DHT22;1608;50.860;13.466;2022-11-15T11:25:51;15.20;99.90
3194;DHT22;1608;50.860;13.466;2022-11-15T11:28:38;15.30;99.90
3194;DHT22;1608;50.860;13.466;2022-11-15T11:31:15;15.30;99.90
3194;DHT22;1608;50.860;13.466;2022-11-15T11:33:49;15.30;99.90
3194;DHT22;1608;50.860;13.466;2022-11-15T11:36:24;15.30;99.90
3194;DHT22;1608;50.860;13.466;2022-11-15T11:39:14;15.30;99.90
3194;DHT22;1608;50.860;13.466;2022-11-15T11:41:53;15.40;99.90
3194;DHT22;1608;50.860;13.466;2022-11-15T11:44:30;15.40;99.90
3194;DHT22;1608;50.860;13.466;2022-11-15T11:47:00;15.50;99.90
3194;DHT22;1608;50.860;13.466;2022-11-15T11:49:36;15.50;99.90
3194;DHT22;1608;50.860;13.466;2022-11-15T11:52:12;15.50;99.90
3194;DHT22;1608;50.860;13.466;2022-11-15T11:54:48;15.50;99.90
3194;DHT22;1608;50.860;13.466;2022-11-15T11:57:26;15.60;99.90
3194;DHT22;1608;50.860;13.466;2022-11-15T11:59:58;15.60;99.90
3194;DHT22;1608;50.860;13.466;2022-11-15T12:02:31;15.60;99.90
3194;DHT22;1608;50.860;13.466;2022-11-15T12:05:07;15.60;99.90
3194;DHT22;1608;50.860;13.466;2022-11-15T12:07:37;15.70;99.90
3194;DHT22;1608;50.860;13.466;2022-11-15T12:10:17;15.70;99.90
3194;DHT22;1608;50.860;13.466;2022-11-15T12:12:51;15.70;99.90
3194;DHT22;1608;50.860;13.466;2022-11-15T12:15:23;15.80;99.90
3194;DHT22;1608;50.860;13.466;2022-11-15T12:17:51;15.70;99.90
3194;DHT22;1608;50.860;13.466;2022-11-15T12:20:21;15.80;99.90
3194;DHT22;1608;50.860;13.466;2022-11-15T12:22:53;15.80;99.90
3194;DHT22;1608;50.860;13.466;2022-11-15T12:25:24;15.70;99.90
3194;DHT22;1608;50.860;13.466;2022-11-15T12:27:57;15.70;99.90
3194;DHT22;1608;50.860;13.466;2022-11-15T12:30:38;15.70;99.90
3194;DHT22;1608;50.860;13.466;2022-11-15T12:33:38;15.60;99.90
3194;DHT22;1608;50.860;13.466;2022-11-15T12:36:10;15.60;99.90
3194;DHT22;1608;50.860;13.466;2022-11-15T12:38:56;15.60;99.70
3194;DHT22;1608;50.860;13.466;2022-11-15T12:41:25;15.50;99.90
3194;DHT22;1608;50.860;13.466;2022-11-15T12:43:53;15.50;99.90
3194;DHT22;1608;50.860;13.466;2022-11-15T12:49:42;15.60;99.90
3194;DHT22;1608;50.860;13.466;2022-11-15T12:52:10;15.50;99.60
3194;DHT22;1608;50.860;13.466;2022-11-15T12:55:00;15.50;99.90
3194;DHT22;1608;50.860;13.466;2022-11-15T12:57:38;15.50;99.50
3194;DHT22;1608;50.860;13.466;2022-11-15T13:03:26;15.40;98.80
3194;DHT22;1608;50.860;13.466;2022-11-15T13:06:03;15.40;99.20
3194;DHT22;1608;50.860;13.466;2022-11-15T13:08:45;15.50;99.50
3194;DHT22;1608;50.860;13.466;2022-11-15T13:11:45;15.40;98.90
3194;DHT22;1608;50.860;13.466;2022-11-15T13:14:35;15.50;98.70
3194;DHT22;1608;50.860;13.466;2022-11-15T13:17:24;15.50;98.80
3194;DHT22;1608;50.860;13.466;2022-11-15T13:19:59;15.50;99.00
3194;DHT22;1608;50.860;13.466;2022-11-15T13:22:26;15.40;98.90
3194;DHT22;1608;50.860;13.466;2022-11-15T13:25:16;15.50;99.10
3194;DHT22;1608;50.860;13.466;2022-11-15T13:27:47;15.50;99.10
3194;DHT22;1608;50.860;13.466;2022-11-15T13:30:22;15.40;98.80
3194;DHT22;1608;50.860;13.466;2022-11-15T13:32:50;15.50;98.70
3194;DHT22;1608;50.860;13.466;2022-11-15T13:35:24;15.40;98.40
3194;DHT22;1608;50.860;13.466;2022-11-15T13:37:53;15.40;97.80
3194;DHT22;1608;50.860;13.466;2022-11-15T13:40:23;15.40;97.30
3194;DHT22;1608;50.860;13.466;2022-11-15T13:42:50;15.30;97.30
3194;DHT22;1608;50.860;13.466;2022-11-15T13:45:18;15.30;97.20
3194;DHT22;1608;50.860;13.466;2022-11-15T13:50:12;15.30;97.00
3194;DHT22;1608;50.860;13.466;2022-11-15T13:52:43;15.20;97.40
3194;DHT22;1608;50.860;13.466;2022-11-15T13:55:14;15.30;97.40
3194;DHT22;1608;50.860;13.466;2022-11-15T13:57:43;15.20;97.60
3194;DHT22;1608;50.860;13.466;2022-11-15T14:00:33;15.20;97.40
3194;DHT22;1608;50.860;13.466;2022-11-15T14:03:14;15.10;97.20
3194;DHT22;1608;50.860;13.466;2022-11-15T14:05:42;15.10;97.20
3194;DHT22;1608;50.860;13.466;2022-11-15T14:08:23;15.00;97.40
3194;DHT22;1608;50.860;13.466;2022-11-15T14:11:06;15.10;97.20
3194;DHT22;1608;50.860;13.466;2022-11-15T14:13:34;15.00;97.40
3194;DHT22;1608;50.860;13.466;2022-11-15T14:16:15;14.90;97.70
3194;DHT22;1608;50.860;13.466;2022-11-15T14:18:45;14.80;97.80
3194;DHT22;1608;50.860;13.466;2022-11-15T14:21:12;14.80;97.90
3194;DHT22;1608;50.860;13.466;2022-11-15T14:23:41;14.80;97.90
3194;DHT22;1608;50.860;13.466;2022-11-15T14:26:25;14.80;97.90
3194;DHT22;1608;50.860;13.466;2022-11-15T14:28:52;14.70;98.20
3194;DHT22;1608;50.860;13.466;2022-11-15T14:31:19;14.60;98.30
3194;DHT22;1608;50.860;13.466;2022-11-15T14:33:47;14.60;98.30
3194;DHT22;1608;50.860;13.466;2022-11-15T14:36:15;14.50;98.60
3194;DHT22;1608;50.860;13.466;2022-11-15T14:38:43;14.50;98.50
3194;DHT22;1608;50.860;13.466;2022-11-15T14:41:18;14.50;98.90
3194;DHT22;1608;50.860;13.466;2022-11-15T14:43:45;14.40;99.20
3194;DHT22;1608;50.860;13.466;2022-11-15T14:46:12;14.30;99.40
3194;DHT22;1608;50.860;13.466;2022-11-15T14:48:39;14.20;99.10
3194;DHT22;1608;50.860;13.466;2022-11-15T14:51:11;14.20;99.50
3194;DHT22;1608;50.860;13.466;2022-11-15T14:53:39;14.10;99.40
3194;DHT22;1608;50.860;13.466;2022-11-15T14:56:07;14.00;99.50
3194;DHT22;1608;50.860;13.466;2022-11-15T14:58:35;14.10;99.90
3194;DHT22;1608;50.860;13.466;2022-11-15T15:01:05;13.80;99.90
3194;DHT22;1608;50.860;13.466;2022-11-15T15:03:37;13.70;99.90
3194;DHT22;1608;50.860;13.466;2022-11-15T15:06:04;13.60;99.90
3194;DHT22;1608;50.860;13.466;2022-11-15T15:08:31;13.50;99.90
3194;DHT22;1608;50.860;13.466;2022-11-15T15:10:58;13.50;99.90
3194;DHT22;1608;50.860;13.466;2022-11-15T15:13:27;13.50;99.90
3194;DHT22;1608;50.860;13.466;2022-11-15T15:15:55;13.30;99.90
3194;DHT22;1608;50.860;13.466;2022-11-15T15:18:22;13.30;99.90
3194;DHT22;1608;50.860;13.466;2022-11-15T15:20:54;13.10;99.90
3194;DHT22;1608;50.860;13.466;2022-11-15T15:23:21;13.00;99.90
3194;DHT22;1608;50.860;13.466;2022-11-15T15:25:51;12.90;99.90
3194;DHT22;1608;50.860;13.466;2022-11-15T15:28:18;12.80;99.90
3194;DHT22;1608;50.860;13.466;2022-11-15T15:30:46;12.70;99.90
3194;DHT22;1608;50.860;13.466;2022-11-15T15:33:15;12.50;99.90
3194;DHT22;1608;50.860;13.466;2022-11-15T15:35:42;12.40;99.90
3194;DHT22;1608;50.860;13.466;2022-11-15T15:38:10;12.40;99.90
3194;DHT22;1608;50.860;13.466;2022-11-15T15:40:38;12.30;99.90
3194;DHT22;1608;50.860;13.466;2022-11-15T15:43:04;12.20;99.90
3194;DHT22;1608;50.860;13.466;2022-11-15T15:45:35;12.10;99.90
3194;DHT22;1608;50.860;13.466;2022-11-15T15:48:04;11.90;99.90
3194;DHT22;1608;50.860;13.466;2022-11-15T15:50:33;12.00;99.90
3194;DHT22;1608;50.860;13.466;2022-11-15T15:53:02;11.80;99.90
3194;DHT22;1608;50.860;13.466;2022-11-15T15:55:29;11.70;99.90
3194;DHT22;1608;50.860;13.466;2022-11-15T15:57:57;11.70;99.90
3194;DHT22;1608;50.860;13.466;2022-11-15T16:00:25;11.50;99.90
3194;DHT22;1608;50.860;13.466;2022-11-15T16:02:52;11.50;99.90
3194;DHT22;1608;50.860;13.466;2022-11-15T16:05:20;11.40;99.90
3194;DHT22;1608;50.860;13.466;2022-11-15T16:07:47;11.30;99.90
3194;DHT22;1608;50.860;13.466;2022-11-15T16:10:18;11.30;99.90
3194;DHT22;1608;50.860;13.466;2022-11-15T16:12:46;11.20;99.90
3194;DHT22;1608;50.860;13.466;2022-11-15T16:15:12;11.20;99.90
3194;DHT22;1608;50.860;13.466;2022-11-15T16:17:44;11.20;99.90
3194;DHT22;1608;50.860;13.466;2022-11-15T16:20:26;11.10;99.90
3194;DHT22;1608;50.860;13.466;2022-11-15T16:22:54;11.10;99.90
3194;DHT22;1608;50.860;13.466;2022-11-15T16:25:22;11.10;99.90
3194;DHT22;1608;50.860;13.466;2022-11-15T16:27:49;10.90;99.90
3194;DHT22;1608;50.860;13.466;2022-11-15T16:30:17;10.90;99.90